Time;durP1;ratioP1;P1;durP2;ratioP2;P2;SDS_P1;SDS_P2;PMS_P1;PMS_P2;Temp;Humidity;BMP_temperature;BMP_pressure;BME280_temperature;BME280_humidity;BME280_pressure;Samples;Min_cycle;Max_cycle;Signal;HPM_P1;HPM_P2
2021/06/26 00:00:15;;;;;;;;;;;;;;;16.11;90.24;100337.98;1647902;86;20112;-87
2021/06/26 00:02:41;;;;;;;;;;;;;;;16.08;90.20;100333.78;1626790;88;20124;-87
2021/06/26 00:05:09;;;;;;;;;;;;;;;16.07;90.21;100336.60;1630626;87;20402;-87
2021/06/26 00:07:36;;;;;;;;;;;;;;;16.06;90.39;100334.94;1632851;86;20191;-87
2021/06/26 00:10:03;;;;;;;;;;;;;;;16.06;90.29;100330.45;1651155;87;20176;-86
2021/06/26 00:12:29;;;;;;;;;;;;;;;16.05;90.44;100335.90;1654389;86;20137;-86
2021/06/26 00:14:55;;;;;;;;;;;;;;;16.05;90.58;100343.39;1646169;85;20126;-86
2021/06/26 00:17:21;;;;;;;;;;;;;;;16.03;90.47;100352.03;1668471;85;20160;-87
2021/06/26 00:19:46;;;;;;;;;;;;;;;16.01;90.54;100355.31;1654624;86;20133;-86
2021/06/26 00:22:12;;;;;;;;;;;;;;;16.00;90.48;100352.81;1660225;86;20152;-86
2021/06/26 00:24:38;;;;;;;;;;;;;;;15.99;90.65;100357.77;1639521;86;20100;-86
2021/06/26 00:27:04;;;;;;;;;;;;;;;15.97;90.72;100357.93;1657549;86;20176;-86
2021/06/26 00:29:30;;;;;;;;;;;;;;;15.97;90.41;100363.25;1662971;85;20431;-86
2021/06/26 00:31:55;;;;;;;;;;;;;;;15.94;90.47;100373.69;1654198;86;20132;-87
2021/06/26 00:34:21;;;;;;;;;;;;;;;15.93;90.33;100369.36;1654371;86;20121;-86
2021/06/26 00:36:47;;;;;;;;;;;;;;;15.92;90.33;100378.30;1662884;86;20237;-86
2021/06/26 00:39:13;;;;;;;;;;;;;;;15.93;90.54;100380.50;1657846;86;20092;-86
2021/06/26 00:41:38;;;;;;;;;;;;;;;15.91;90.40;100376.63;1626698;88;20096;-86
2021/06/26 00:44:08;;;;;;;;;;;;;;;15.92;90.35;100378.80;1645400;86;20133;-86
2021/06/26 00:46:35;;;;;;;;;;;;;;;15.89;90.26;100372.44;1654576;86;20145;-87
2021/06/26 00:49:01;;;;;;;;;;;;;;;15.86;90.02;100366.94;1654765;86;20137;-87
2021/06/26 00:51:27;;;;;;;;;;;;;;;15.82;90.09;100369.52;1654753;86;20140;-86
2021/06/26 00:53:53;;;;;;;;;;;;;;;15.80;90.29;100367.51;1654758;86;20458;-87
2021/06/26 00:56:19;;;;;;;;;;;;;;;15.77;90.23;100369.13;1654651;87;20165;-87
2021/06/26 00:58:45;;;;;;;;;;;;;;;15.77;89.99;100365.63;1646196;86;20137;-87
2021/06/26 01:01:14;;;;;;;;;;;;;;;15.73;89.98;100359.76;1626943;87;20185;-87
2021/06/26 01:03:43;;;;;;;;;;;;;;;15.67;90.09;100359.00;1642486;86;20133;-87
2021/06/26 01:06:09;;;;;;;;;;;;;;;15.64;90.28;100353.44;1654391;86;20140;-87
2021/06/26 01:08:35;;;;;;;;;;;;;;;15.63;90.31;100358.87;1654750;87;20133;-87
2021/06/26 01:11:00;;;;;;;;;;;;;;;15.60;90.29;100352.55;1654913;86;20525;-87
2021/06/26 01:13:28;;;;;;;;;;;;;;;15.56;90.38;100352.46;1654781;86;20169;-87
2021/06/26 01:15:54;;;;;;;;;;;;;;;15.54;90.27;100345.14;1654081;86;20141;-87
2021/06/26 01:18:19;;;;;;;;;;;;;;;15.51;90.46;100342.76;1655787;86;20164;-87
2021/06/26 01:20:46;;;;;;;;;;;;;;;15.49;90.26;100345.05;1653139;86;20238;-87
2021/06/26 01:23:13;;;;;;;;;;;;;;;15.46;90.21;100346.69;1652660;86;20144;-87
2021/06/26 01:25:39;;;;;;;;;;;;;;;15.44;90.09;100339.34;1654742;86;20113;-87
2021/06/26 01:28:05;;;;;;;;;;;;;;;15.40;90.16;100336.63;1666298;86;20201;-88
2021/06/26 01:30:34;;;;;;;;;;;;;;;15.39;90.16;100337.58;1654878;86;20224;-87
2021/06/26 01:33:01;;;;;;;;;;;;;;;15.35;90.16;100334.03;1653977;86;20113;-87
2021/06/26 01:35:27;;;;;;;;;;;;;;;15.34;90.17;100339.01;1661622;86;20168;-87
2021/06/26 01:37:53;;;;;;;;;;;;;;;15.33;90.32;100334.65;1657005;85;20101;-87
2021/06/26 01:40:22;;;;;;;;;;;;;;;15.30;90.30;100330.48;1654829;86;20114;-87
2021/06/26 01:42:49;;;;;;;;;;;;;;;15.29;90.38;100326.13;1638728;86;20200;-88
2021/06/26 01:45:16;;;;;;;;;;;;;;;15.30;90.55;100329.61;1654407;87;20406;-88
2021/06/26 01:47:47;;;;;;;;;;;;;;;15.29;90.74;100324.80;1654629;86;20125;-88
2021/06/26 01:50:14;;;;;;;;;;;;;;;15.29;90.92;100328.78;1654372;87;20133;-88
2021/06/26 01:52:39;;;;;;;;;;;;;;;15.30;91.08;100329.16;1654602;86;20178;-87
2021/06/26 01:55:06;;;;;;;;;;;;;;;15.29;91.08;100322.13;1652964;86;20145;-87
2021/06/26 01:57:32;;;;;;;;;;;;;;;15.29;91.04;100327.95;1658729;86;20454;-87
2021/06/26 01:59:58;;;;;;;;;;;;;;;15.29;91.19;100333.27;1632299;86;20099;-88
2021/06/26 02:02:23;;;;;;;;;;;;;;;15.28;90.68;100339.56;1668208;85;20161;-87
2021/06/26 02:04:49;;;;;;;;;;;;;;;15.26;90.72;100341.02;1657201;85;20134;-87
2021/06/26 02:07:15;;;;;;;;;;;;;;;15.25;90.77;100344.17;1654591;86;20126;-87
2021/06/26 02:09:40;;;;;;;;;;;;;;;15.24;90.89;100346.99;1654333;86;20106;-87
2021/06/26 02:12:07;;;;;;;;;;;;;;;15.22;90.78;100352.43;1654312;86;20121;-87
2021/06/26 02:14:32;;;;;;;;;;;;;;;15.22;90.79;100366.22;1666436;86;20168;-89
2021/06/26 02:16:58;;;;;;;;;;;;;;;15.20;91.04;100354.41;1668457;85;20179;-88
2021/06/26 02:19:24;;;;;;;;;;;;;;;15.21;91.12;100353.91;1659666;85;20466;-88
2021/06/26 02:21:49;;;;;;;;;;;;;;;15.22;91.30;100354.25;1668179;86;20176;-87
2021/06/26 02:24:15;;;;;;;;;;;;;;;15.23;91.13;100351.94;1661054;85;20097;-87
2021/06/26 02:26:41;;;;;;;;;;;;;;;15.23;91.19;100353.27;1653985;86;20126;-86
2021/06/26 02:29:06;;;;;;;;;;;;;;;15.23;91.47;100356.78;1659755;86;20439;-87
2021/06/26 02:31:32;;;;;;;;;;;;;;;15.24;91.87;100362.94;1654641;86;20154;-86
2021/06/26 02:33:58;;;;;;;;;;;;;;;15.25;91.54;100357.96;1649305;86;20121;-87
2021/06/26 02:36:23;;;;;;;;;;;;;;;15.27;91.82;100361.80;1654816;86;20387;-87
2021/06/26 02:38:49;;;;;;;;;;;;;;;15.27;91.73;100367.98;1654626;87;20132;-87
2021/06/26 02:41:15;;;;;;;;;;;;;;;15.27;91.94;100365.78;1654590;87;20113;-86
2021/06/26 02:43:41;;;;;;;;;;;;;;;15.26;91.99;100370.27;1654684;86;20463;-86
2021/06/26 02:46:06;;;;;;;;;;;;;;;15.25;91.96;100375.23;1654643;87;20132;-86
2021/06/26 02:48:32;;;;;;;;;;;;;;;15.23;91.95;100375.86;1654677;86;20161;-87
2021/06/26 02:50:58;;;;;;;;;;;;;;;15.23;92.08;100379.84;1654936;86;20169;-86
2021/06/26 02:53:24;;;;;;;;;;;;;;;15.22;91.97;100388.31;1654519;87;20447;-87
2021/06/26 02:55:55;;;;;;;;;;;;;;;15.22;91.96;100387.48;1644944;86;20163;-87
2021/06/26 02:58:17;;;;;;;;;;;;;;;15.20;91.96;100388.09;1649419;87;20384;-86
2021/06/26 03:00:42;;;;;;;;;;;;;;;15.20;91.96;100393.41;1648092;86;20132;-86
2021/06/26 03:03:08;;;;;;;;;;;;;;;15.20;92.00;100392.08;1655243;86;20160;-86
2021/06/26 03:05:34;;;;;;;;;;;;;;;15.18;91.98;100393.56;1654763;86;20137;-86
2021/06/26 03:07:59;;;;;;;;;;;;;;;15.19;92.07;100400.55;1666154;86;20392;-87
2021/06/26 03:10:25;;;;;;;;;;;;;;;15.19;92.01;100406.36;1661036;86;20458;-86
2021/06/26 03:12:51;;;;;;;;;;;;;;;15.18;91.96;100411.34;1655186;86;20126;-86
2021/06/26 03:15:17;;;;;;;;;;;;;;;15.15;91.79;100414.27;1660908;86;20156;-86
2021/06/26 03:17:42;;;;;;;;;;;;;;;15.14;91.68;100412.60;1655064;85;20429;-86
2021/06/26 03:20:09;;;;;;;;;;;;;;;15.09;91.58;100407.68;1656387;85;20129;-86
2021/06/26 03:22:35;;;;;;;;;;;;;;;15.07;91.54;100403.48;1654929;85;20116;-86
2021/06/26 03:25:02;;;;;;;;;;;;;;;15.05;91.65;100404.95;1641347;86;20161;-86
2021/06/26 03:27:27;;;;;;;;;;;;;;;15.04;91.83;100399.77;1654508;86;20141;-86
2021/06/26 03:29:53;;;;;;;;;;;;;;;15.05;92.05;100412.09;1654806;86;20146;-86
2021/06/26 03:32:19;;;;;;;;;;;;;;;15.03;91.92;100412.22;1654516;86;20188;-86
2021/06/26 03:34:44;;;;;;;;;;;;;;;15.03;91.83;100410.89;1655081;86;20160;-86
2021/06/26 03:37:10;;;;;;;;;;;;;;;15.04;92.13;100410.39;1641500;86;20141;-86
2021/06/26 03:39:36;;;;;;;;;;;;;;;15.02;92.04;100414.53;1656923;86;20145;-86
2021/06/26 03:42:02;;;;;;;;;;;;;;;15.03;92.11;100421.52;1626436;88;20171;-86
2021/06/26 03:44:28;;;;;;;;;;;;;;;15.04;92.26;100425.01;1645776;86;20112;-86
2021/06/26 03:46:54;;;;;;;;;;;;;;;15.06;92.54;100425.72;1656095;86;20129;-86
2021/06/26 03:49:19;;;;;;;;;;;;;;;15.08;92.64;100423.29;1654792;86;20408;-86
2021/06/26 03:51:45;;;;;;;;;;;;;;;15.11;92.84;100424.84;1652640;86;20165;-86
2021/06/26 03:54:11;;;;;;;;;;;;;;;15.11;92.72;100419.03;1657128;86;20150;-86
2021/06/26 03:56:37;;;;;;;;;;;;;;;15.12;92.78;100421.19;1653713;85;20126;-86
2021/06/26 03:59:02;;;;;;;;;;;;;;;15.13;92.87;100421.04;1652650;86;20136;-86
2021/06/26 04:01:28;;;;;;;;;;;;;;;15.15;93.11;100419.59;1643281;87;20434;-85
2021/06/26 04:03:54;;;;;;;;;;;;;;;15.16;93.17;100416.78;1627146;86;20143;-86
2021/06/26 04:06:20;;;;;;;;;;;;;;;15.18;93.61;100412.17;1621418;87;20171;-86
2021/06/26 04:08:45;;;;;;;;;;;;;;;15.23;93.55;100419.72;1650074;86;20152;-86
2021/06/26 04:11:11;;;;;;;;;;;;;;;15.28;93.57;100411.34;1654817;86;20164;-86
2021/06/26 04:13:37;;;;;;;;;;;;;;;15.32;93.93;100416.23;1654256;86;20168;-85
2021/06/26 04:16:04;;;;;;;;;;;;;;;15.37;94.27;100414.50;1657558;86;20133;-85
2021/06/26 04:18:30;;;;;;;;;;;;;;;15.41;94.33;100410.57;1655334;86;20139;-87
2021/06/26 04:20:55;;;;;;;;;;;;;;;15.46;94.30;100409.64;1636723;85;20124;-87
2021/06/26 04:23:21;;;;;;;;;;;;;;;15.53;94.55;100405.93;1654739;86;20135;-85
2021/06/26 04:25:48;;;;;;;;;;;;;;;15.58;94.64;100405.86;1632998;86;20120;-86
2021/06/26 04:28:14;;;;;;;;;;;;;;;15.64;94.88;100409.29;1629774;86;20136;-86
2021/06/26 04:30:40;;;;;;;;;;;;;;;15.70;94.95;100406.59;1634707;87;20111;-86
2021/06/26 04:33:06;;;;;;;;;;;;;;;15.77;95.01;100408.19;1627078;87;20378;-87
2021/06/26 04:35:32;;;;;;;;;;;;;;;15.84;94.76;100406.63;1652802;86;20444;-85
2021/06/26 04:37:58;;;;;;;;;;;;;;;15.89;94.96;100405.23;1646016;87;20123;-86
2021/06/26 04:40:23;;;;;;;;;;;;;;;15.95;95.00;100403.30;1652197;86;20181;-85
2021/06/26 04:42:50;;;;;;;;;;;;;;;16.00;95.26;100405.55;1643043;86;20376;-86
2021/06/26 04:45:15;;;;;;;;;;;;;;;16.08;95.11;100407.47;1654881;86;20112;-86
2021/06/26 04:47:42;;;;;;;;;;;;;;;16.12;95.23;100411.05;1654723;86;20164;-86
2021/06/26 04:50:10;;;;;;;;;;;;;;;16.17;95.27;100404.78;1654755;86;20106;-84
2021/06/26 04:52:36;;;;;;;;;;;;;;;16.20;95.07;100399.67;1664865;86;20125;-86
2021/06/26 04:55:03;;;;;;;;;;;;;;;16.23;94.90;100402.03;1658950;85;20171;-86
2021/06/26 04:57:29;;;;;;;;;;;;;;;16.26;95.04;100401.75;1644723;87;20169;-85
2021/06/26 04:59:55;;;;;;;;;;;;;;;16.31;94.88;100408.78;1653588;86;20452;-85
2021/06/26 05:02:21;;;;;;;;;;;;;;;16.34;94.93;100405.00;1651446;86;20164;-86
2021/06/26 05:04:46;;;;;;;;;;;;;;;16.36;94.90;100399.87;1627052;88;20107;-85
2021/06/26 05:07:12;;;;;;;;;;;;;;;16.41;95.14;100404.25;1633515;86;20141;-85
2021/06/26 05:09:38;;;;;;;;;;;;;;;16.48;95.41;100407.17;1654830;86;20161;-85
2021/06/26 05:12:05;;;;;;;;;;;;;;;16.55;95.38;100414.94;1654627;86;20168;-86
2021/06/26 05:14:31;;;;;;;;;;;;;;;16.60;95.08;100404.66;1654975;86;20105;-86
2021/06/26 05:16:56;;;;;;;;;;;;;;;16.65;94.89;100401.08;1665571;86;20519;-86
2021/06/26 05:19:22;;;;;;;;;;;;;;;16.71;94.63;100402.28;1667537;86;20169;-85
2021/06/26 05:21:48;;;;;;;;;;;;;;;16.78;94.84;100409.22;1644876;85;20142;-85
2021/06/26 05:24:14;;;;;;;;;;;;;;;16.81;94.79;100412.45;1654719;87;20113;-85
2021/06/26 05:26:39;;;;;;;;;;;;;;;16.85;94.75;100411.66;1657867;86;20140;-84
2021/06/26 05:29:05;;;;;;;;;;;;;;;16.87;94.65;100409.66;1668599;85;20157;-85
2021/06/26 05:31:31;;;;;;;;;;;;;;;16.90;94.27;100415.19;1655952;86;20121;-87
2021/06/26 05:33:56;;;;;;;;;;;;;;;16.92;94.45;100411.89;1654717;86;20157;-87
2021/06/26 05:36:22;;;;;;;;;;;;;;;16.95;94.08;100407.59;1636137;86;20118;-87
2021/06/26 05:38:48;;;;;;;;;;;;;;;16.99;94.03;100404.97;1628527;87;20156;-86
2021/06/26 05:41:14;;;;;;;;;;;;;;;17.00;93.98;100398.63;1666754;86;20185;-85
2021/06/26 05:43:39;;;;;;;;;;;;;;;17.03;93.92;100405.00;1660182;86;20117;-85
2021/06/26 05:46:05;;;;;;;;;;;;;;;17.06;94.10;100402.03;1651003;86;20431;-85
2021/06/26 05:54:14;;;;;;;;;;;;;;;17.16;94.18;100397.96;1600857;88;20174;-87
2021/06/26 05:56:40;;;;;;;;;;;;;;;17.20;94.01;100393.50;1648098;86;20101;-90
2021/06/26 05:59:06;;;;;;;;;;;;;;;17.22;93.84;100394.69;1654917;86;20130;-87
2021/06/26 06:01:32;;;;;;;;;;;;;;;17.26;93.69;100404.05;1655032;87;20429;-89
2021/06/26 06:03:58;;;;;;;;;;;;;;;17.28;93.84;100395.42;1629622;86;20112;-88
2021/06/26 06:06:24;;;;;;;;;;;;;;;17.32;93.73;100397.61;1627051;88;20187;-87
2021/06/26 06:08:49;;;;;;;;;;;;;;;17.38;94.15;100394.01;1649770;86;20121;-89
2021/06/26 06:11:15;;;;;;;;;;;;;;;17.42;94.19;100392.20;1655012;87;20109;-88
2021/06/26 06:13:41;;;;;;;;;;;;;;;17.48;93.94;100398.75;1654980;87;20419;-88
2021/06/26 06:16:07;;;;;;;;;;;;;;;17.52;94.30;100394.78;1650220;86;20134;-89
2021/06/26 06:18:33;;;;;;;;;;;;;;;17.56;94.19;100396.14;1677341;85;20163;-90
2021/06/26 06:20:58;;;;;;;;;;;;;;;17.62;94.02;100394.69;1668684;85;20387;-89
2021/06/26 06:23:24;;;;;;;;;;;;;;;17.69;94.09;100399.23;1655046;86;20187;-92
2021/06/26 06:25:50;;;;;;;;;;;;;;;17.74;93.42;100397.45;1658945;86;20435;-89
2021/06/26 06:28:16;;;;;;;;;;;;;;;17.77;93.52;100396.68;1649164;86;20389;-90
2021/06/26 06:30:41;;;;;;;;;;;;;;;17.83;93.14;100403.70;1651392;87;20158;-89
2021/06/26 06:33:07;;;;;;;;;;;;;;;17.88;93.00;100404.09;1667412;86;20193;-90
2021/06/26 06:35:33;;;;;;;;;;;;;;;17.90;92.99;100387.39;1668923;86;20149;-88
2021/06/26 06:38:00;;;;;;;;;;;;;;;17.95;92.75;100398.45;1664416;86;20109;-88
2021/06/26 06:40:26;;;;;;;;;;;;;;;18.01;92.98;100393.32;1644058;86;20135;-89
2021/06/26 06:42:52;;;;;;;;;;;;;;;18.07;92.93;100388.36;1626899;88;20119;-90
2021/06/26 06:45:18;;;;;;;;;;;;;;;18.12;92.60;100384.20;1654594;87;20407;-89
2021/06/26 06:47:44;;;;;;;;;;;;;;;18.16;92.34;100389.55;1666385;86;20438;-88
2021/06/26 06:53:26;;;;;;;;;;;;;;;18.26;90.91;100388.09;1585807;90;20144;-86
2021/06/26 06:55:52;;;;;;;;;;;;;;;18.31;90.96;100388.47;1563918;91;20102;-88
2021/06/26 06:58:19;;;;;;;;;;;;;;;18.35;90.85;100391.16;1615484;87;20385;-87
2021/06/26 07:00:45;;;;;;;;;;;;;;;18.39;90.88;100395.67;1630393;87;20396;-87
2021/06/26 07:03:11;;;;;;;;;;;;;;;18.43;90.31;100402.39;1611790;88;20160;-88
2021/06/26 07:05:36;;;;;;;;;;;;;;;18.47;90.44;100401.06;1629593;87;20126;-88
2021/06/26 07:08:02;;;;;;;;;;;;;;;18.51;90.01;100398.41;1634798;87;20412;-88
2021/06/26 07:10:28;;;;;;;;;;;;;;;18.54;90.14;100398.09;1651111;87;20165;-87
2021/06/26 07:12:54;;;;;;;;;;;;;;;18.58;90.41;100401.27;1637228;87;20131;-88
2021/06/26 07:15:19;;;;;;;;;;;;;;;18.59;90.47;100398.45;1639591;87;20193;-87
2021/06/26 07:17:45;;;;;;;;;;;;;;;18.61;90.04;100403.12;1637657;87;20108;-89
2021/06/26 07:20:12;;;;;;;;;;;;;;;18.64;90.43;100405.47;1637262;86;20149;-89
2021/06/26 07:22:38;;;;;;;;;;;;;;;18.68;90.52;100401.47;1633757;88;20145;-88
2021/06/26 07:25:04;;;;;;;;;;;;;;;18.74;90.65;100396.84;1625141;87;20177;-88
2021/06/26 07:27:30;;;;;;;;;;;;;;;18.83;90.28;100396.88;1619677;88;20135;-88
2021/06/26 07:29:56;;;;;;;;;;;;;;;18.90;90.28;100400.57;1635933;87;20139;-88
2021/06/26 07:32:21;;;;;;;;;;;;;;;18.95;89.80;100401.77;1616889;88;20147;-88
2021/06/26 07:34:47;;;;;;;;;;;;;;;19.00;89.52;100405.77;1608104;89;20438;-88
2021/06/26 07:37:13;;;;;;;;;;;;;;;19.06;89.32;100405.95;1628130;88;20134;-88
2021/06/26 07:39:38;;;;;;;;;;;;;;;19.13;88.86;100406.97;1609505;88;20113;-89
2021/06/26 07:42:05;;;;;;;;;;;;;;;19.22;89.44;100410.50;1633818;88;20138;-88
2021/06/26 07:44:30;;;;;;;;;;;;;;;19.34;89.61;100409.66;1616784;88;20141;-87
2021/06/26 07:46:56;;;;;;;;;;;;;;;19.44;89.30;100413.83;1609092;87;20152;-87
2021/06/26 07:49:22;;;;;;;;;;;;;;;19.57;89.73;100412.00;1653402;87;20164;-90
2021/06/26 07:51:48;;;;;;;;;;;;;;;19.67;89.14;100407.84;1631121;86;20138;-88
2021/06/26 07:54:16;;;;;;;;;;;;;;;19.71;88.28;100407.00;1630448;86;20140;-89
2021/06/26 07:56:41;;;;;;;;;;;;;;;19.76;88.06;100411.37;1619467;88;20150;-89
2021/06/26 07:59:07;;;;;;;;;;;;;;;19.80;88.10;100411.36;1624402;88;20148;-86
2021/06/26 08:01:32;;;;;;;;;;;;;;;19.87;88.59;100413.20;1644298;87;20542;-87
2021/06/26 08:03:58;;;;;;;;;;;;;;;19.97;88.29;100404.96;1652425;87;20169;-83
2021/06/26 08:06:24;;;;;;;;;;;;;;;20.08;87.95;100409.98;1653415;87;20210;-84
2021/06/26 08:08:50;;;;;;;;;;;;;;;20.19;86.84;100406.59;1618670;87;20128;-86
2021/06/26 08:11:15;;;;;;;;;;;;;;;20.25;86.38;100411.27;1607589;88;20105;-87
2021/06/26 08:13:41;;;;;;;;;;;;;;;20.36;87.22;100409.55;1615716;88;20397;-89
2021/06/26 08:16:07;;;;;;;;;;;;;;;20.47;87.03;100405.17;1628036;86;20114;-84
2021/06/26 08:21:41;;;;;;;;;;;;;;;20.72;86.52;100409.10;1617731;86;20130;-81
2021/06/26 08:24:08;;;;;;;;;;;;;;;20.84;84.45;100401.00;1622317;88;20148;-81
2021/06/26 08:26:34;;;;;;;;;;;;;;;20.92;83.82;100401.45;1623107;88;20165;-81
2021/06/26 08:29:00;;;;;;;;;;;;;;;20.98;83.46;100401.58;1625367;87;20186;-81
2021/06/26 08:31:26;;;;;;;;;;;;;;;21.07;83.29;100408.56;1623103;88;20157;-81
2021/06/26 08:33:51;;;;;;;;;;;;;;;21.12;82.30;100403.16;1639961;86;20162;-80
2021/06/26 08:36:17;;;;;;;;;;;;;;;21.11;82.89;100403.67;1649723;86;20134;-82
2021/06/26 08:38:43;;;;;;;;;;;;;;;21.08;81.88;100399.49;1646448;86;20138;-81
2021/06/26 08:41:28;;;;;;;;;;;;;;;21.04;81.45;100408.09;1658880;86;20143;-86
2021/06/26 08:43:54;;;;;;;;;;;;;;;21.01;81.46;100401.73;1654531;86;20135;-85
2021/06/26 08:46:21;;;;;;;;;;;;;;;20.97;81.08;100399.91;1618618;86;20118;-86
2021/06/26 08:49:03;;;;;;;;;;;;;;;20.95;81.37;100396.56;1623524;87;20227;-84
2021/06/26 08:51:54;;;;;;;;;;;;;;;20.95;81.42;100401.09;1632092;87;20122;-80
2021/06/26 08:54:20;;;;;;;;;;;;;;;20.98;81.22;100396.20;1550976;90;20182;-80
2021/06/26 08:56:47;;;;;;;;;;;;;;;21.06;81.42;100394.00;1604812;87;20148;-83
2021/06/26 08:59:13;;;;;;;;;;;;;;;21.15;80.84;100394.77;1625964;86;20288;-82
2021/06/26 09:01:40;;;;;;;;;;;;;;;21.19;79.31;100391.56;1634806;86;20138;-83
2021/06/26 09:04:09;;;;;;;;;;;;;;;21.19;79.74;100392.05;1635158;88;20138;-82
2021/06/26 09:06:53;;;;;;;;;;;;;;;21.21;80.21;100393.54;1626718;88;20447;-80
2021/06/26 09:09:35;;;;;;;;;;;;;;;21.32;81.23;100390.94;1627620;88;20128;-84
2021/06/26 09:12:03;;;;;;;;;;;;;;;21.45;80.41;100385.83;1630547;86;20139;-87
2021/06/26 09:14:29;;;;;;;;;;;;;;;21.62;80.09;100391.05;1661382;86;20394;-82
2021/06/26 09:16:55;;;;;;;;;;;;;;;21.74;79.45;100387.75;1661817;85;20147;-85
2021/06/26 09:19:21;;;;;;;;;;;;;;;21.81;78.73;100387.86;1637676;85;20165;-84
2021/06/26 09:22:08;;;;;;;;;;;;;;;21.85;77.87;100391.87;1634146;87;20166;-84
2021/06/26 09:24:43;;;;;;;;;;;;;;;21.88;77.40;100387.95;1642706;87;20413;-85
2021/06/26 09:27:16;;;;;;;;;;;;;;;21.88;77.91;100386.13;1624755;87;20200;-84
2021/06/26 09:29:55;;;;;;;;;;;;;;;21.87;77.06;100389.81;1609893;87;20101;-83
2021/06/26 09:32:27;;;;;;;;;;;;;;;21.87;77.34;100382.27;1644879;86;20166;-89
2021/06/26 09:34:54;;;;;;;;;;;;;;;21.84;76.90;100385.31;1644990;86;20142;-88
2021/06/26 09:37:25;;;;;;;;;;;;;;;21.84;77.50;100383.46;1633232;86;20117;-88
2021/06/26 09:39:54;;;;;;;;;;;;;;;21.82;76.78;100380.14;1627945;86;20427;-90
2021/06/26 09:42:30;;;;;;;;;;;;;;;21.79;75.90;100383.20;1631952;86;20118;-89
2021/06/26 09:45:04;;;;;;;;;;;;;;;21.74;75.36;100378.86;1649968;86;20162;-89
2021/06/26 09:47:39;;;;;;;;;;;;;;;21.72;75.77;100375.55;1628398;86;20126;-88
2021/06/26 09:50:09;;;;;;;;;;;;;;;21.69;75.88;100375.91;1619603;88;20142;-87
2021/06/26 09:52:51;;;;;;;;;;;;;;;21.69;76.40;100377.25;1634318;87;20158;-89
2021/06/26 09:55:25;;;;;;;;;;;;;;;21.68;77.24;100378.25;1650689;86;20192;-88
2021/06/26 09:57:53;;;;;;;;;;;;;;;21.70;77.07;100388.31;1634067;86;20169;-89
2021/06/26 10:00:22;;;;;;;;;;;;;;;21.70;77.76;100382.94;1612347;88;20161;-87
2021/06/26 10:02:48;;;;;;;;;;;;;;;21.73;77.72;100385.27;1650452;87;20480;-88
2021/06/26 10:05:15;;;;;;;;;;;;;;;21.75;77.45;100387.23;1653697;87;20186;-87
2021/06/26 10:07:42;;;;;;;;;;;;;;;21.76;77.54;100385.73;1652855;87;20153;-85
2021/06/26 10:10:13;;;;;;;;;;;;;;;21.77;77.46;100385.22;1647447;86;20148;-88
2021/06/26 10:12:39;;;;;;;;;;;;;;;21.77;77.03;100384.70;1622635;87;20167;-87
2021/06/26 10:15:06;;;;;;;;;;;;;;;21.80;77.02;100379.48;1613267;87;20148;-88
2021/06/26 10:17:34;;;;;;;;;;;;;;;21.86;77.65;100377.41;1607902;89;20132;-91
2021/06/26 10:20:00;;;;;;;;;;;;;;;21.93;76.76;100378.85;1608587;88;20196;-91
2021/06/26 10:22:26;;;;;;;;;;;;;;;21.96;77.14;100377.97;1641395;87;20186;-89
2021/06/26 10:24:52;;;;;;;;;;;;;;;22.01;77.22;100368.86;1636425;86;20129;-86
2021/06/26 10:27:22;;;;;;;;;;;;;;;22.06;75.93;100373.67;1624364;87;20426;-91
2021/06/26 10:29:48;;;;;;;;;;;;;;;22.09;76.07;100371.13;1634163;87;20126;-88
2021/06/26 10:32:16;;;;;;;;;;;;;;;22.12;76.17;100372.94;1623137;86;20189;-89
2021/06/26 10:34:49;;;;;;;;;;;;;;;22.16;75.71;100368.88;1625560;87;20547;-87
2021/06/26 10:37:20;;;;;;;;;;;;;;;22.21;76.51;100372.34;1630544;87;20209;-90
2021/06/26 10:39:49;;;;;;;;;;;;;;;22.24;75.13;100373.31;1637619;86;20172;-90
2021/06/26 10:42:36;;;;;;;;;;;;;;;22.23;73.26;100375.69;1634836;86;20132;-85
2021/06/26 10:45:03;;;;;;;;;;;;;;;22.27;75.46;100374.29;1646226;86;20204;-88
2021/06/26 10:47:40;;;;;;;;;;;;;;;22.33;74.08;100373.55;1614310;87;20164;-88
2021/06/26 10:50:23;;;;;;;;;;;;;;;22.37;74.18;100376.18;1626870;86;20268;-86
2021/06/26 10:52:56;;;;;;;;;;;;;;;22.50;74.72;100368.80;1657735;87;20479;-86
2021/06/26 10:55:33;;;;;;;;;;;;;;;22.66;74.41;100363.20;1657751;86;20137;-87
2021/06/26 10:58:01;;;;;;;;;;;;;;;22.83;74.46;100361.63;1636832;86;20130;-89
2021/06/26 11:00:34;;;;;;;;;;;;;;;22.96;73.41;100367.69;1649422;87;20142;-86
2021/06/26 11:03:01;;;;;;;;;;;;;;;23.07;73.45;100365.34;1643327;87;20576;-86
2021/06/26 11:05:33;;;;;;;;;;;;;;;23.17;73.62;100373.09;1634839;87;20138;-86
2021/06/26 11:07:59;;;;;;;;;;;;;;;23.32;72.81;100365.77;1633118;87;20147;-84
2021/06/26 11:10:25;;;;;;;;;;;;;;;23.36;72.61;100372.94;1621458;88;20134;-85
2021/06/26 11:12:51;;;;;;;;;;;;;;;23.28;72.24;100379.30;1613430;88;20415;-84
2021/06/26 11:15:30;;;;;;;;;;;;;;;23.19;73.27;100383.14;1632413;88;20110;-85
2021/06/26 11:17:57;;;;;;;;;;;;;;;23.11;72.99;100382.77;1635037;88;20977;-86
2021/06/26 11:20:24;;;;;;;;;;;;;;;23.00;72.89;100384.62;1635422;87;20448;-87
2021/06/26 11:22:58;;;;;;;;;;;;;;;22.86;72.79;100388.15;1648434;87;20164;-87
2021/06/26 11:25:32;;;;;;;;;;;;;;;22.76;72.81;100397.03;1640586;87;20168;-84
2021/06/26 11:28:04;;;;;;;;;;;;;;;22.66;72.77;100395.98;1634981;87;20140;-84
2021/06/26 11:30:30;;;;;;;;;;;;;;;22.57;71.86;100399.80;1653363;86;20154;-85
2021/06/26 11:32:57;;;;;;;;;;;;;;;22.45;72.27;100397.59;1655784;86;20132;-85
2021/06/26 11:35:33;;;;;;;;;;;;;;;22.41;72.38;100396.31;1633807;88;20108;-84
2021/06/26 11:37:59;;;;;;;;;;;;;;;22.36;72.75;100400.58;1633611;88;20120;-85
2021/06/26 11:40:41;;;;;;;;;;;;;;;22.30;72.64;100396.77;1624333;87;20136;-84
2021/06/26 11:43:07;;;;;;;;;;;;;;;22.27;72.37;100398.48;1621567;88;20118;-87
2021/06/26 11:45:35;;;;;;;;;;;;;;;22.22;72.19;100400.91;1620898;87;20440;-84
2021/06/26 11:48:13;;;;;;;;;;;;;;;22.18;72.57;100400.96;1611833;88;20431;-87
2021/06/26 11:50:48;;;;;;;;;;;;;;;22.13;72.14;100404.66;1608062;88;20475;-84
2021/06/26 11:56:37;;;;;;;;;;;;;;;21.93;72.05;100401.17;1632780;88;20304;-84
2021/06/26 11:59:03;;;;;;;;;;;;;;;21.86;72.33;100408.81;1617036;87;20145;-84
2021/06/26 12:01:31;;;;;;;;;;;;;;;21.76;71.30;100404.53;1640393;87;20137;-83
2021/06/26 12:03:59;;;;;;;;;;;;;;;21.70;71.78;100397.71;1618868;87;20507;-82
2021/06/26 12:06:24;;;;;;;;;;;;;;;21.66;71.97;100393.22;1623843;88;20160;-84
2021/06/26 12:08:57;;;;;;;;;;;;;;;21.62;71.86;100395.08;1618433;87;20088;-96
2021/06/26 12:11:25;;;;;;;;;;;;;;;21.59;71.76;100390.94;1609948;88;20161;-96
2021/06/26 12:13:53;;;;;;;;;;;;;;;21.54;71.56;100389.28;1600539;89;20112;-91
2021/06/26 12:16:21;;;;;;;;;;;;;;;21.53;71.30;100387.62;1609609;89;20129;-92
2021/06/26 12:19:23;;;;;;;;;;;;;;;;;;;;;
2021/06/26 12:21:45;;;;;;;;;;;;;;;21.51;71.18;100382.94;1602149;88;20430;-91
2021/06/26 12:24:29;;;;;;;;;;;;;;;21.54;71.72;100377.20;1641246;86;20165;-93
2021/06/26 12:27:08;;;;;;;;;;;;;;;21.59;71.38;100374.83;1649393;86;20177;-91
2021/06/26 12:29:50;;;;;;;;;;;;;;;21.61;70.13;100376.80;1640040;87;20165;-92
2021/06/26 12:32:24;;;;;;;;;;;;;;;21.62;70.70;100373.13;1656693;87;20181;-84
2021/06/26 12:34:50;;;;;;;;;;;;;;;21.65;70.05;100374.58;1656735;87;20139;-83
2021/06/26 12:37:42;;;;;;;;;;;;;;;21.67;69.57;100381.45;1654763;87;20130;-82
2021/06/26 12:40:31;;;;;;;;;;;;;;;21.69;69.64;100375.40;1642878;87;20116;-80
2021/06/26 12:48:58;;;;;;;;;;;;;;;21.81;69.23;100376.28;1592403;87;20476;-83
2021/06/26 12:51:31;;;;;;;;;;;;;;;21.90;68.37;100373.84;1651188;87;20220;-83
2021/06/26 12:53:57;;;;;;;;;;;;;;;21.96;68.28;100376.63;1647722;86;20157;-81
2021/06/26 13:02:47;;;;;;;;;;;;;;;22.12;68.46;100376.97;1586470;88;20161;-82
2021/06/26 13:08:20;;;;;;;;;;;;;;;22.16;68.00;100363.51;1617227;87;20137;-81
2021/06/26 13:10:54;;;;;;;;;;;;;;;22.17;68.75;100368.37;1631120;88;20153;-81